createdAt,value
2023-02-26T00:00:15.355Z,-1.63
2023-02-26T00:02:42.731Z,-1.65
2023-02-26T00:05:09.992Z,-1.51
2023-02-26T00:07:36.736Z,-1.51
2023-02-26T00:10:04.945Z,-1.47
2023-02-26T00:12:31.956Z,-1.47
2023-02-26T00:14:59.029Z,-1.44
2023-02-26T00:17:49.038Z,-1.31
2023-02-26T00:20:19.124Z,-1.28
2023-02-26T00:22:46.032Z,-1.16
2023-02-26T00:25:12.680Z,-1.13
2023-02-26T00:27:39.733Z,-1.00
2023-02-26T00:30:08.322Z,-1.07
2023-02-26T00:32:36.247Z,-1.02
2023-02-26T00:35:03.282Z,-0.94
2023-02-26T00:37:29.625Z,-0.95
2023-02-26T00:40:30.270Z,-0.77
2023-02-26T00:42:57.165Z,-0.62
2023-02-26T00:45:23.895Z,-0.51
2023-02-26T00:48:29.629Z,-0.33
2023-02-26T00:51:05.607Z,-0.26
2023-02-26T00:53:40.552Z,-0.47
2023-02-26T00:56:07.035Z,-0.23
2023-02-26T00:58:33.480Z,-0.14
2023-02-26T01:01:00.217Z,-0.45
2023-02-26T01:03:26.806Z,-0.36
2023-02-26T01:05:53.434Z,-0.52
2023-02-26T01:08:34.427Z,-0.34
2023-02-26T01:11:01.090Z,-0.42
2023-02-26T01:13:27.665Z,-0.45
2023-02-26T01:16:02.815Z,-0.41
2023-02-26T01:18:40.823Z,-0.41
2023-02-26T01:21:12.793Z,-0.65
2023-02-26T01:23:43.547Z,-0.69
2023-02-26T01:26:22.148Z,-0.54
2023-02-26T01:28:49.176Z,-0.61
2023-02-26T01:31:36.857Z,-0.42
2023-02-26T01:34:14.412Z,-0.48
2023-02-26T01:36:49.171Z,-0.46
2023-02-26T01:39:57.881Z,-0.41
2023-02-26T01:42:30.145Z,-0.29
2023-02-26T01:45:03.170Z,-0.29
2023-02-26T01:47:44.943Z,-0.30
2023-02-26T01:50:14.953Z,-0.28
2023-02-26T01:52:47.478Z,-0.40
2023-02-26T01:55:23.663Z,-0.31
2023-02-26T01:57:52.393Z,-0.48
2023-02-26T02:00:19.533Z,-0.42
2023-02-26T02:02:46.526Z,-0.51
2023-02-26T02:05:31.714Z,-0.62
2023-02-26T02:07:59.287Z,-0.66
2023-02-26T02:10:26.696Z,-0.89
2023-02-26T02:13:11.123Z,-0.94
2023-02-26T02:15:54.286Z,-0.85
2023-02-26T02:18:51.072Z,-0.98
2023-02-26T02:21:30.062Z,-0.96
2023-02-26T02:24:10.656Z,-1.02
2023-02-26T02:26:40.172Z,-0.90
2023-02-26T02:29:28.217Z,-0.98
2023-02-26T02:32:00.549Z,-0.90
2023-02-26T02:34:37.791Z,-0.88
2023-02-26T02:37:11.911Z,-0.75
2023-02-26T02:39:47.443Z,-0.73
2023-02-26T02:42:13.868Z,-0.85
2023-02-26T02:44:44.483Z,-0.82
2023-02-26T02:47:13.808Z,-0.72
2023-02-26T02:49:51.288Z,-0.61
2023-02-26T02:52:27.070Z,-0.59
2023-02-26T02:54:59.476Z,-0.84
2023-02-26T02:57:35.795Z,-0.73
2023-02-26T03:00:10.639Z,-0.66
2023-02-26T03:02:49.290Z,-0.69
2023-02-26T03:05:15.818Z,-0.61
2023-02-26T03:07:53.978Z,-0.56
2023-02-26T03:10:20.888Z,-0.61
2023-02-26T03:12:47.328Z,-0.69
2023-02-26T03:15:15.348Z,-0.72
2023-02-26T03:18:06.381Z,-0.68
2023-02-26T03:20:36.512Z,-0.74
2023-02-26T03:23:24.526Z,-0.86
2023-02-26T03:25:56.656Z,-1.06
2023-02-26T03:28:40.469Z,-1.22
2023-02-26T03:31:27.046Z,-1.27
2023-02-26T03:34:06.109Z,-1.39
2023-02-26T03:37:07.572Z,-1.49
2023-02-26T03:39:45.657Z,-1.48
2023-02-26T03:42:30.987Z,-1.52
2023-02-26T03:45:01.075Z,-1.58
2023-02-26T03:47:29.440Z,-1.59
2023-02-26T03:50:04.731Z,-1.53
2023-02-26T03:52:35.167Z,-1.54
2023-02-26T03:55:05.205Z,-1.51
2023-02-26T03:57:31.779Z,-1.71
2023-02-26T03:59:58.268Z,-1.80
2023-02-26T04:02:27.775Z,-1.88
2023-02-26T04:05:01.190Z,-1.91
2023-02-26T04:07:28.066Z,-1.87
2023-02-26T04:09:54.521Z,-1.90
2023-02-26T04:12:26.617Z,-1.84
2023-02-26T04:14:53.080Z,-1.81
2023-02-26T04:17:19.549Z,-1.74
2023-02-26T04:19:45.977Z,-1.88
2023-02-26T04:22:12.688Z,-1.99
2023-02-26T04:24:39.328Z,-1.89
2023-02-26T04:27:06.105Z,-1.96
2023-02-26T04:29:32.589Z,-2.06
2023-02-26T04:31:59.531Z,-1.94
2023-02-26T04:34:26.258Z,-1.77
2023-02-26T04:36:52.830Z,-1.74
2023-02-26T04:39:19.465Z,-1.74
2023-02-26T04:41:46.060Z,-1.63
2023-02-26T04:44:12.664Z,-1.69
2023-02-26T04:46:39.324Z,-1.52
2023-02-26T04:49:05.910Z,-1.47
2023-02-26T04:51:32.301Z,-1.54
2023-02-26T04:53:58.773Z,-1.46
2023-02-26T04:56:25.809Z,-1.43
2023-02-26T04:58:52.488Z,-1.38
2023-02-26T05:01:18.989Z,-1.42
2023-02-26T05:03:45.602Z,-1.54
2023-02-26T05:06:12.207Z,-1.59
2023-02-26T05:08:42.216Z,-1.61
2023-02-26T05:11:12.240Z,-1.59
2023-02-26T05:13:39.287Z,-1.65
2023-02-26T05:16:06.612Z,-1.71
2023-02-26T05:18:33.200Z,-1.66
2023-02-26T05:20:59.974Z,-1.46
2023-02-26T05:23:27.106Z,-1.28
2023-02-26T05:25:56.826Z,-1.30
2023-02-26T05:28:24.824Z,-1.35
2023-02-26T05:30:51.713Z,-1.29
2023-02-26T05:33:18.897Z,-1.18
2023-02-26T05:35:45.907Z,-1.12
2023-02-26T05:38:12.428Z,-1.10
2023-02-26T05:40:38.835Z,-1.22
2023-02-26T05:43:05.284Z,-1.30
2023-02-26T05:45:31.738Z,-1.16
2023-02-26T05:47:58.241Z,-1.24
2023-02-26T05:50:24.801Z,-1.22
2023-02-26T05:52:51.214Z,-1.24
2023-02-26T05:55:17.977Z,-1.10
2023-02-26T05:57:44.435Z,-1.14
2023-02-26T06:00:12.153Z,-1.01
2023-02-26T06:02:38.628Z,-1.05
2023-02-26T06:05:05.630Z,-1.00
2023-02-26T06:07:32.154Z,-0.93
2023-02-26T06:09:58.614Z,-0.88
2023-02-26T06:12:25.209Z,-0.93
2023-02-26T06:14:51.714Z,-0.99
2023-02-26T06:17:18.172Z,-0.94
2023-02-26T06:19:45.432Z,-0.95
2023-02-26T06:22:11.989Z,-0.98
2023-02-26T06:24:38.412Z,-1.06
2023-02-26T06:27:04.909Z,-1.23
2023-02-26T06:29:31.384Z,-1.33
2023-02-26T06:31:57.991Z,-1.40
2023-02-26T06:34:24.462Z,-1.37
2023-02-26T06:36:51.001Z,-1.41
2023-02-26T06:39:17.513Z,-1.41
2023-02-26T06:41:43.889Z,-1.51
2023-02-26T06:44:11.573Z,-1.54
2023-02-26T06:46:38.151Z,-1.49
2023-02-26T06:49:05.008Z,-1.56
2023-02-26T06:51:31.451Z,-1.54
2023-02-26T06:53:57.949Z,-1.51
2023-02-26T06:56:25.693Z,-1.26
2023-02-26T06:58:52.482Z,-1.32
2023-02-26T07:01:19.407Z,-1.36
2023-02-26T07:03:46.067Z,-1.36
2023-02-26T07:06:26.553Z,-1.10
2023-02-26T07:08:59.477Z,-1.09
2023-02-26T07:11:26.292Z,-0.83
2023-02-26T07:13:52.803Z,-0.78
2023-02-26T07:16:19.260Z,-0.66
2023-02-26T07:18:45.787Z,-0.64
2023-02-26T07:21:12.217Z,-0.68
2023-02-26T07:23:38.675Z,-0.63
2023-02-26T07:26:05.398Z,-0.52
2023-02-26T07:28:31.919Z,-0.44
2023-02-26T07:30:58.336Z,-0.39
2023-02-26T07:33:26.528Z,0.13
2023-02-26T07:35:52.998Z,0.70
2023-02-26T07:38:19.807Z,2.11
2023-02-26T07:40:46.964Z,2.87
2023-02-26T07:43:13.992Z,3.33
2023-02-26T07:45:40.578Z,3.06
2023-02-26T07:48:07.220Z,2.72
2023-02-26T07:50:33.895Z,2.45
2023-02-26T07:53:00.320Z,1.93
2023-02-26T07:55:27.773Z,1.49
2023-02-26T07:57:54.268Z,1.18
2023-02-26T08:00:21.184Z,0.55
2023-02-26T08:02:47.794Z,0.47
2023-02-26T08:05:14.451Z,0.73
2023-02-26T08:07:40.899Z,0.60
2023-02-26T08:10:07.766Z,0.67
2023-02-26T08:12:34.344Z,1.01
2023-02-26T08:15:00.788Z,1.19
2023-02-26T08:17:27.384Z,1.68
2023-02-26T08:19:53.871Z,2.12
2023-02-26T08:22:22.082Z,1.81
2023-02-26T08:24:48.569Z,1.80
2023-02-26T08:27:15.180Z,1.52
2023-02-26T08:29:42.679Z,1.81
2023-02-26T08:32:09.328Z,1.95
2023-02-26T08:34:35.770Z,2.56
2023-02-26T08:37:02.153Z,3.38
2023-02-26T08:39:28.581Z,4.08
2023-02-26T08:41:55.215Z,3.93
2023-02-26T08:44:21.596Z,3.99
2023-02-26T08:46:48.008Z,4.67
2023-02-26T08:49:14.382Z,4.70
2023-02-26T08:51:40.868Z,4.82
2023-02-26T08:54:07.325Z,5.54
2023-02-26T08:56:33.727Z,5.03
2023-02-26T08:59:00.140Z,4.64
2023-02-26T09:01:28.193Z,4.36
2023-02-26T09:03:54.953Z,4.26
2023-02-26T09:06:21.368Z,3.75
2023-02-26T09:08:49.287Z,4.01
2023-02-26T09:11:15.858Z,3.69
2023-02-26T09:13:42.817Z,4.39
2023-02-26T09:16:09.382Z,4.62
2023-02-26T09:18:35.890Z,4.15
2023-02-26T09:21:03.023Z,4.74
2023-02-26T09:23:29.855Z,5.33
2023-02-26T09:25:57.436Z,6.10
2023-02-26T09:28:25.705Z,6.84
2023-02-26T09:30:54.130Z,7.54
2023-02-26T09:33:21.157Z,7.42
2023-02-26T09:35:49.273Z,7.56
2023-02-26T09:38:16.153Z,7.60
2023-02-26T09:41:00.026Z,8.39
2023-02-26T09:43:26.311Z,7.80
2023-02-26T09:45:56.363Z,6.16
2023-02-26T09:48:24.376Z,6.30
2023-02-26T09:50:56.793Z,6.28
2023-02-26T09:53:31.492Z,5.50
2023-02-26T09:56:17.160Z,4.92
2023-02-26T09:58:44.677Z,4.52
2023-02-26T10:01:38.169Z,4.23
2023-02-26T10:04:56.030Z,3.90
2023-02-26T10:07:42.433Z,4.51
2023-02-26T10:10:15.364Z,3.97
2023-02-26T10:12:44.667Z,4.21
2023-02-26T10:15:42.563Z,4.67
2023-02-26T10:18:26.604Z,4.16
2023-02-26T10:21:02.257Z,3.63
2023-02-26T10:24:00.570Z,2.95
2023-02-26T10:26:33.006Z,2.74
2023-02-26T10:29:27.633Z,2.31
2023-02-26T10:32:15.463Z,2.39
2023-02-26T10:34:51.599Z,2.50
2023-02-26T10:37:36.257Z,2.68
2023-02-26T10:40:18.376Z,3.97
2023-02-26T10:42:50.890Z,5.31
2023-02-26T10:45:23.195Z,5.93
2023-02-26T10:48:05.303Z,6.90
2023-02-26T10:50:32.129Z,5.63
2023-02-26T10:52:58.812Z,4.69
2023-02-26T10:55:31.154Z,4.30
2023-02-26T10:58:04.495Z,4.76
2023-02-26T11:00:31.556Z,6.17
2023-02-26T11:02:58.413Z,6.82
2023-02-26T11:05:29.011Z,5.50
2023-02-26T11:07:58.807Z,4.50
2023-02-26T11:10:33.588Z,3.70
2023-02-26T11:13:00.436Z,4.23
2023-02-26T11:15:27.329Z,5.38
2023-02-26T11:17:57.723Z,5.68
2023-02-26T11:20:41.738Z,7.56
2023-02-26T11:23:13.768Z,9.00
2023-02-26T11:25:40.917Z,10.21
2023-02-26T11:28:31.693Z,10.75
2023-02-26T11:31:02.088Z,10.47
2023-02-26T11:33:37.149Z,9.47
2023-02-26T11:36:17.251Z,9.53
2023-02-26T11:39:01.117Z,9.21
2023-02-26T11:41:29.314Z,8.81
2023-02-26T11:44:05.094Z,8.79
2023-02-26T11:46:31.841Z,9.94
2023-02-26T11:49:01.231Z,9.57
2023-02-26T11:51:29.801Z,7.65
2023-02-26T11:54:01.437Z,6.45
2023-02-26T11:56:42.321Z,6.22
2023-02-26T11:59:17.355Z,5.88
2023-02-26T12:01:43.920Z,5.20
2023-02-26T12:04:12.715Z,4.54
2023-02-26T12:06:39.549Z,4.73
2023-02-26T12:09:14.298Z,4.82
2023-02-26T12:12:18.246Z,5.61
2023-02-26T12:15:23.113Z,7.52
2023-02-26T12:18:23.952Z,6.89
2023-02-26T12:21:02.443Z,6.77
2023-02-26T12:23:42.827Z,8.34
2023-02-26T12:26:43.012Z,7.45
2023-02-26T12:29:30.656Z,6.37
2023-02-26T12:32:26.130Z,5.73
2023-02-26T12:35:19.930Z,5.66
2023-02-26T12:37:46.338Z,6.20
2023-02-26T12:40:49.117Z,5.88
2023-02-26T12:43:41.748Z,5.48
2023-02-26T12:46:40.501Z,5.11
2023-02-26T12:49:25.593Z,4.55
2023-02-26T12:52:24.449Z,4.34
2023-02-26T12:55:08.580Z,3.86
2023-02-26T12:57:47.544Z,3.41
2023-02-26T13:00:38.735Z,3.18
2023-02-26T13:03:35.003Z,3.62
2023-02-26T13:06:25.959Z,3.61
2023-02-26T13:09:03.295Z,3.37
2023-02-26T13:12:05.583Z,3.20
2023-02-26T13:14:38.039Z,2.98
2023-02-26T13:17:33.811Z,2.78
2023-02-26T13:20:13.736Z,3.10
2023-02-26T13:22:47.403Z,2.79
2023-02-26T13:25:25.382Z,2.73
2023-02-26T13:27:57.248Z,2.99
2023-02-26T13:30:27.002Z,2.87
2023-02-26T13:32:56.980Z,2.71
2023-02-26T13:35:34.451Z,2.60
2023-02-26T13:38:06.427Z,2.81
2023-02-26T13:41:21.324Z,2.70
2023-02-26T13:44:04.639Z,2.78
2023-02-26T13:46:33.955Z,2.90
2023-02-26T13:49:10.567Z,3.00
2023-02-26T13:51:40.361Z,3.10
2023-02-26T13:54:14.265Z,3.34
2023-02-26T13:56:40.676Z,3.43
2023-02-26T13:59:13.526Z,4.42
2023-02-26T14:01:46.230Z,4.70
2023-02-26T14:04:25.106Z,4.30
2023-02-26T14:06:54.788Z,6.95
2023-02-26T14:09:25.536Z,7.28
2023-02-26T14:12:04.032Z,7.86
2023-02-26T14:14:34.849Z,7.15
2023-02-26T14:17:01.263Z,6.73
2023-02-26T14:19:32.749Z,5.51
2023-02-26T14:22:13.839Z,4.81
2023-02-26T14:24:52.084Z,4.20
2023-02-26T14:27:18.469Z,4.32
2023-02-26T14:30:05.287Z,4.28
2023-02-26T14:32:48.799Z,3.70
2023-02-26T14:35:40.520Z,3.46
2023-02-26T14:38:23.238Z,3.71
2023-02-26T14:40:55.744Z,3.58
2023-02-26T14:43:36.908Z,3.60
2023-02-26T14:46:05.779Z,3.64
2023-02-26T14:48:33.132Z,3.74
2023-02-26T14:51:02.319Z,3.62
2023-02-26T14:53:53.539Z,3.05
2023-02-26T14:56:32.338Z,3.13
2023-02-26T14:59:38.873Z,2.86
2023-02-26T15:02:29.767Z,2.72
2023-02-26T15:05:14.353Z,2.83
2023-02-26T15:07:53.320Z,2.81
2023-02-26T15:10:28.578Z,2.77
2023-02-26T15:13:20.009Z,2.80
2023-02-26T15:16:27.019Z,2.63
2023-02-26T15:19:12.879Z,2.62
2023-02-26T15:22:11.368Z,2.28
2023-02-26T15:24:40.027Z,2.24
2023-02-26T15:27:10.734Z,2.29
2023-02-26T15:29:41.030Z,2.28
2023-02-26T15:32:27.595Z,2.40
2023-02-26T15:35:10.717Z,2.03
2023-02-26T15:37:38.498Z,1.85
2023-02-26T15:40:05.936Z,1.68
2023-02-26T15:42:37.473Z,1.67
2023-02-26T15:45:08.474Z,1.71
2023-02-26T15:47:35.205Z,1.66
2023-02-26T15:50:01.793Z,1.55
2023-02-26T15:52:29.529Z,1.51
2023-02-26T15:55:00.514Z,1.77
2023-02-26T15:57:28.471Z,1.89
2023-02-26T16:00:06.846Z,1.82
2023-02-26T16:02:33.274Z,1.79
2023-02-26T16:05:02.578Z,1.86
2023-02-26T16:07:29.044Z,1.92
2023-02-26T16:09:56.717Z,1.83
2023-02-26T16:12:43.561Z,1.72
2023-02-26T16:15:17.564Z,1.60
2023-02-26T16:17:47.913Z,1.60
2023-02-26T16:20:18.365Z,1.58
2023-02-26T16:22:55.350Z,1.41
2023-02-26T16:25:31.350Z,1.46
2023-02-26T16:28:05.229Z,1.36
2023-02-26T16:30:36.301Z,1.39
2023-02-26T16:33:04.639Z,1.19
2023-02-26T16:35:39.031Z,1.11
2023-02-26T16:38:27.083Z,1.15
2023-02-26T16:41:23.167Z,1.01
2023-02-26T16:43:58.786Z,0.94
2023-02-26T16:46:43.027Z,0.97
2023-02-26T16:49:20.300Z,0.88
2023-02-26T16:51:48.346Z,0.78
2023-02-26T16:54:22.333Z,0.78
2023-02-26T16:56:58.679Z,0.71
2023-02-26T16:59:30.140Z,0.70
2023-02-26T17:02:05.498Z,0.56
2023-02-26T17:04:36.931Z,0.43
2023-02-26T17:07:15.099Z,0.40
2023-02-26T17:09:49.145Z,0.44
2023-02-26T17:12:19.922Z,0.37
2023-02-26T17:14:53.219Z,0.32
2023-02-26T17:17:20.229Z,0.35
2023-02-26T17:19:46.683Z,0.26
2023-02-26T17:22:19.445Z,0.23
2023-02-26T17:24:47.662Z,0.28
2023-02-26T17:27:24.895Z,0.23
2023-02-26T17:29:51.704Z,0.22
2023-02-26T17:32:21.946Z,0.31
2023-02-26T17:34:49.233Z,0.22
2023-02-26T17:37:16.510Z,0.25
2023-02-26T17:39:43.888Z,0.23
2023-02-26T17:42:12.212Z,0.20
2023-02-26T17:44:38.729Z,0.31
2023-02-26T17:47:05.841Z,0.07
2023-02-26T17:49:32.406Z,0.25
2023-02-26T17:51:58.959Z,0.30
2023-02-26T17:54:25.409Z,0.26
2023-02-26T17:56:51.915Z,0.28
2023-02-26T17:59:18.385Z,0.20
2023-02-26T18:01:44.995Z,0.13
2023-02-26T18:04:13.205Z,0.07
2023-02-26T18:06:39.842Z,0.13
2023-02-26T18:09:06.494Z,0.21
2023-02-26T18:11:33.304Z,0.08
2023-02-26T18:14:01.064Z,0.08
2023-02-26T18:16:34.148Z,0.05
2023-02-26T18:19:01.626Z,0.07
2023-02-26T18:21:28.655Z,0.00
2023-02-26T18:23:57.629Z,0.00
2023-02-26T18:26:27.602Z,0.01
2023-02-26T18:28:55.639Z,-0.06
2023-02-26T18:31:23.903Z,0.19
2023-02-26T18:33:51.490Z,0.27
2023-02-26T18:36:29.773Z,0.05
2023-02-26T18:39:01.436Z,-0.01
2023-02-26T18:41:29.419Z,-0.01
2023-02-26T18:43:56.373Z,0.19
2023-02-26T18:46:23.331Z,0.17
2023-02-26T18:48:49.761Z,0.20
2023-02-26T18:51:16.407Z,0.26
2023-02-26T18:53:42.891Z,0.12
2023-02-26T18:56:09.380Z,0.08
2023-02-26T18:58:36.010Z,0.01
2023-02-26T19:01:04.853Z,-0.15
2023-02-26T19:03:31.649Z,-0.24
2023-02-26T19:06:03.068Z,-0.22
2023-02-26T19:08:30.324Z,-0.20
2023-02-26T19:10:57.899Z,-0.38
2023-02-26T19:13:24.909Z,-0.42
2023-02-26T19:15:51.649Z,-0.42
2023-02-26T19:18:18.340Z,-0.47
2023-02-26T19:20:45.075Z,-0.53
2023-02-26T19:23:11.906Z,-0.49
2023-02-26T19:25:39.621Z,-0.42
2023-02-26T19:28:07.282Z,-0.52
2023-02-26T19:30:34.616Z,-0.57
2023-02-26T19:33:01.247Z,-0.63
2023-02-26T19:35:30.947Z,-0.69
2023-02-26T19:37:57.447Z,-0.59
2023-02-26T19:40:24.609Z,-0.73
2023-02-26T19:42:53.587Z,-0.86
2023-02-26T19:45:20.726Z,-0.91
2023-02-26T19:47:47.487Z,-0.93
2023-02-26T19:50:19.142Z,-0.97
2023-02-26T19:52:45.800Z,-0.99
2023-02-26T19:55:14.411Z,-0.96
2023-02-26T19:57:40.959Z,-1.04
2023-02-26T20:00:08.283Z,-0.98
2023-02-26T20:02:34.780Z,-1.01
2023-02-26T20:05:01.309Z,-1.04
2023-02-26T20:07:27.870Z,-1.11
2023-02-26T20:09:54.368Z,-1.16
2023-02-26T20:12:23.670Z,-1.25
2023-02-26T20:14:53.158Z,-1.31
2023-02-26T20:17:19.682Z,-1.18
2023-02-26T20:19:46.807Z,-1.29
2023-02-26T20:22:13.309Z,-1.28
2023-02-26T20:24:39.847Z,-1.18
2023-02-26T20:27:07.199Z,-1.13
2023-02-26T20:29:33.676Z,-1.28
2023-02-26T20:32:00.425Z,-1.14
2023-02-26T20:34:30.027Z,-1.06
2023-02-26T20:36:56.727Z,-1.00
2023-02-26T20:39:23.602Z,-0.94
2023-02-26T20:41:50.714Z,-0.81
2023-02-26T20:44:17.602Z,-0.65
2023-02-26T20:46:44.331Z,-0.63
2023-02-26T20:49:11.773Z,-0.48
2023-02-26T20:51:42.462Z,-0.65
2023-02-26T20:54:26.724Z,-0.53
2023-02-26T20:57:00.862Z,-0.65
2023-02-26T20:59:32.003Z,-0.67
2023-02-26T21:01:58.666Z,-0.68
2023-02-26T21:04:25.228Z,-0.83
2023-02-26T21:06:51.785Z,-0.90
2023-02-26T21:09:18.342Z,-0.94
2023-02-26T21:11:52.650Z,-0.93
2023-02-26T21:14:26.847Z,-1.02
2023-02-26T21:16:54.859Z,-1.04
2023-02-26T21:19:23.706Z,-0.79
2023-02-26T21:21:50.219Z,-0.94
2023-02-26T21:24:16.621Z,-0.97
2023-02-26T21:26:46.083Z,-1.11
2023-02-26T21:29:12.574Z,-1.20
2023-02-26T21:31:39.292Z,-1.24
2023-02-26T21:34:23.702Z,-1.29
2023-02-26T21:36:52.504Z,-1.15
2023-02-26T21:39:19.275Z,-1.25
2023-02-26T21:41:45.778Z,-1.35
2023-02-26T21:44:22.332Z,-1.37
2023-02-26T21:46:48.808Z,-1.34
2023-02-26T21:49:18.170Z,-1.40
2023-02-26T21:51:47.715Z,-1.46
2023-02-26T21:54:20.370Z,-1.45
2023-02-26T21:56:47.295Z,-1.49
2023-02-26T21:59:18.991Z,-1.54
2023-02-26T22:01:56.166Z,-1.65
2023-02-26T22:04:25.944Z,-1.64
2023-02-26T22:07:01.709Z,-1.65
2023-02-26T22:09:30.648Z,-1.73
2023-02-26T22:12:04.487Z,-1.65
2023-02-26T22:14:31.039Z,-1.73
2023-02-26T22:16:57.575Z,-1.78
2023-02-26T22:19:24.153Z,-1.70
2023-02-26T22:21:53.290Z,-1.79
2023-02-26T22:24:19.754Z,-1.80
2023-02-26T22:26:58.096Z,-1.80
2023-02-26T22:29:36.363Z,-1.85
2023-02-26T22:34:45.186Z,-1.90
2023-02-26T22:37:15.422Z,-1.86
2023-02-26T22:39:44.699Z,-1.99
2023-02-26T22:42:11.168Z,-1.97
2023-02-26T22:44:46.367Z,-1.96
2023-02-26T22:47:15.874Z,-2.00
2023-02-26T22:49:45.262Z,-2.01
2023-02-26T22:52:11.879Z,-1.95
2023-02-26T22:54:38.874Z,-1.86
2023-02-26T22:57:06.235Z,-1.91
2023-02-26T22:59:32.745Z,-1.78
2023-02-26T23:01:59.386Z,-1.82
2023-02-26T23:04:26.199Z,-1.81
2023-02-26T23:06:53.037Z,-1.90
2023-02-26T23:09:19.540Z,-1.92
2023-02-26T23:11:46.096Z,-1.80
2023-02-26T23:14:12.982Z,-1.82
2023-02-26T23:16:39.908Z,-1.77
2023-02-26T23:19:06.667Z,-1.81
2023-02-26T23:21:33.338Z,-1.93
2023-02-26T23:23:59.903Z,-1.68
2023-02-26T23:26:26.447Z,-1.67
2023-02-26T23:28:53.056Z,-1.79
2023-02-26T23:31:19.587Z,-1.98
2023-02-26T23:33:46.259Z,-2.04
2023-02-26T23:36:12.976Z,-2.02
2023-02-26T23:38:39.484Z,-1.97
2023-02-26T23:41:05.897Z,-2.00
2023-02-26T23:43:32.613Z,-2.14
2023-02-26T23:45:59.368Z,-2.02
2023-02-26T23:48:27.292Z,-2.12
2023-02-26T23:50:54.556Z,-2.21
2023-02-26T23:53:21.120Z,-2.27
2023-02-26T23:55:47.885Z,-2.12
2023-02-26T23:58:14.357Z,-2.16
